createdAt,value
2023-01-09T00:00:16.800Z,1000.55
2023-01-09T00:02:16.722Z,1000.46
2023-01-09T00:04:16.761Z,1000.44
2023-01-09T00:06:16.642Z,1000.45
2023-01-09T00:08:16.619Z,1000.45
2023-01-09T00:10:16.740Z,1000.22
2023-01-09T00:12:16.620Z,1000.22
2023-01-09T00:14:16.650Z,1000.24
2023-01-09T00:16:16.712Z,1000.24
2023-01-09T00:18:16.638Z,1000.05
2023-01-09T00:20:16.722Z,1000.13
2023-01-09T00:22:16.600Z,1000.09
2023-01-09T00:24:16.753Z,1000.07
2023-01-09T00:26:16.627Z,1000.07
2023-01-09T00:28:16.637Z,999.95
2023-01-09T00:30:16.626Z,999.88
2023-01-09T00:32:16.655Z,999.87
2023-01-09T00:34:16.608Z,999.85
2023-01-09T00:36:16.700Z,999.85
2023-01-09T00:38:16.632Z,999.85
2023-01-09T00:40:16.781Z,999.77
2023-01-09T00:42:16.748Z,999.73
2023-01-09T00:44:16.633Z,999.73
2023-01-09T00:46:16.776Z,999.74
2023-01-09T00:48:16.660Z,999.78
2023-01-09T00:50:16.649Z,999.80
2023-01-09T00:52:16.660Z,999.80
2023-01-09T00:54:46.637Z,999.80
2023-01-09T00:56:46.685Z,999.76
2023-01-09T00:58:46.629Z,999.83
2023-01-09T01:00:46.668Z,999.75
2023-01-09T01:02:46.751Z,999.71
2023-01-09T01:04:46.638Z,999.71
2023-01-09T01:06:46.655Z,999.72
2023-01-09T01:08:46.653Z,999.71
2023-01-09T01:10:46.675Z,999.74
2023-01-09T01:12:46.682Z,999.74
2023-01-09T01:14:46.683Z,999.76
2023-01-09T01:16:46.729Z,999.76
2023-01-09T01:18:46.645Z,999.73
2023-01-09T01:20:46.686Z,999.73
2023-01-09T01:22:46.696Z,999.73
2023-01-09T01:24:46.681Z,999.75
2023-01-09T01:26:46.643Z,999.72
2023-01-09T01:28:46.644Z,999.70
2023-01-09T01:30:46.733Z,999.68
2023-01-09T01:32:46.644Z,999.68
2023-01-09T01:34:47.791Z,999.68
2023-01-09T01:36:46.761Z,999.67
2023-01-09T01:38:46.874Z,999.62
2023-01-09T01:40:46.689Z,999.62
2023-01-09T01:42:46.740Z,999.62
2023-01-09T01:44:46.689Z,999.65
2023-01-09T01:46:46.711Z,999.60
2023-01-09T01:48:46.706Z,999.58
2023-01-09T01:50:46.738Z,999.58
2023-01-09T01:52:46.803Z,999.55
2023-01-09T01:54:46.771Z,999.55
2023-01-09T01:56:46.756Z,999.52
2023-01-09T01:58:46.766Z,999.54
2023-01-09T02:00:46.806Z,999.54
2023-01-09T02:02:46.866Z,999.61
2023-01-09T02:04:46.721Z,999.62
2023-01-09T02:06:46.789Z,999.64
2023-01-09T02:08:46.796Z,999.70
2023-01-09T02:10:46.744Z,999.70
2023-01-09T02:12:46.826Z,999.69
2023-01-09T02:14:46.787Z,999.69
2023-01-09T02:16:46.758Z,999.69
2023-01-09T02:18:46.740Z,999.69
2023-01-09T02:20:47.030Z,999.72
2023-01-09T02:24:46.777Z,999.67
2023-01-09T02:26:46.789Z,999.67
2023-01-09T02:28:46.792Z,999.67
2023-01-09T02:30:46.778Z,999.63
2023-01-09T02:32:56.839Z,999.65
2023-01-09T02:34:56.836Z,999.63
2023-01-09T02:36:56.850Z,999.62
2023-01-09T02:38:56.857Z,999.62
2023-01-09T02:40:56.867Z,999.70
2023-01-09T02:42:56.866Z,999.73
2023-01-09T02:44:56.879Z,999.70
2023-01-09T02:46:56.880Z,999.70
2023-01-09T02:48:56.845Z,999.69
2023-01-09T02:50:56.857Z,999.68
2023-01-09T02:52:56.948Z,999.60
2023-01-09T02:54:56.914Z,999.60
2023-01-09T02:56:56.877Z,999.60
2023-01-09T02:58:57.013Z,999.63
2023-01-09T03:00:57.017Z,999.61
2023-01-09T03:02:56.961Z,999.61
2023-01-09T03:04:56.867Z,999.59
2023-01-09T03:06:56.909Z,999.59
2023-01-09T03:08:56.853Z,999.53
2023-01-09T03:10:56.897Z,999.52
2023-01-09T03:12:58.912Z,999.52
2023-01-09T03:14:56.979Z,999.52
2023-01-09T03:17:27.074Z,999.84
2023-01-09T03:19:26.916Z,999.84
2023-01-09T03:21:26.869Z,999.84
2023-01-09T03:23:26.921Z,999.91
2023-01-09T03:25:26.966Z,999.92
2023-01-09T03:27:26.913Z,999.95
2023-01-09T03:29:28.887Z,999.95
2023-01-09T03:31:26.993Z,999.92
2023-01-09T03:33:27.025Z,999.96
2023-01-09T03:35:26.902Z,999.96
2023-01-09T03:37:26.940Z,999.91
2023-01-09T03:39:26.913Z,999.91
2023-01-09T03:41:26.912Z,1000.04
2023-01-09T03:43:26.925Z,1000.04
2023-01-09T03:45:27.046Z,1000.15
2023-01-09T03:47:26.901Z,1000.15
2023-01-09T03:49:26.896Z,1000.14
2023-01-09T03:51:26.935Z,1000.14
2023-01-09T03:53:26.956Z,1000.24
2023-01-09T03:55:26.916Z,1000.24
2023-01-09T03:57:27.139Z,1000.24
2023-01-09T03:59:26.942Z,1000.37
2023-01-09T04:01:27.209Z,1000.37
2023-01-09T04:03:26.915Z,1000.43
2023-01-09T04:05:26.901Z,1000.36
2023-01-09T04:07:26.955Z,1000.36
2023-01-09T04:09:27.083Z,1000.36
2023-01-09T04:11:26.940Z,1000.35
2023-01-09T04:13:26.980Z,1000.34
2023-01-09T04:15:27.015Z,1000.34
2023-01-09T04:17:26.931Z,1000.34
2023-01-09T04:19:26.933Z,1000.52
2023-01-09T04:21:26.932Z,1000.52
2023-01-09T04:23:26.957Z,1000.71
2023-01-09T04:25:26.993Z,1000.71
2023-01-09T04:27:26.947Z,1000.81
2023-01-09T04:29:27.062Z,1000.90
2023-01-09T04:31:26.931Z,1000.96
2023-01-09T04:33:26.937Z,1000.96
2023-01-09T04:35:26.991Z,1000.96
2023-01-09T04:37:26.980Z,1001.20
2023-01-09T04:39:26.973Z,1001.28
2023-01-09T04:41:26.958Z,1001.32
2023-01-09T04:43:26.965Z,1001.32
2023-01-09T04:45:26.988Z,1001.40
2023-01-09T04:47:26.976Z,1001.42
2023-01-09T04:49:26.935Z,1001.43
2023-01-09T04:51:26.919Z,1001.47
2023-01-09T04:53:26.974Z,1001.47
2023-01-09T04:55:26.946Z,1001.49
2023-01-09T04:57:26.989Z,1001.49
2023-01-09T04:59:27.327Z,1001.53
2023-01-09T05:01:57.106Z,1001.53
2023-01-09T05:03:57.006Z,1001.53
2023-01-09T05:05:56.975Z,1001.71
2023-01-09T05:07:56.940Z,1001.84
2023-01-09T05:09:56.931Z,1001.82
2023-01-09T05:11:56.950Z,1001.82
2023-01-09T05:13:56.924Z,1001.82
2023-01-09T05:15:56.953Z,1002.11
2023-01-09T05:17:56.961Z,1002.11
2023-01-09T05:19:56.919Z,1002.29
2023-01-09T05:21:57.022Z,1002.29
2023-01-09T05:23:57.130Z,1002.36
2023-01-09T05:25:56.923Z,1002.44
2023-01-09T05:27:57.038Z,1002.53
2023-01-09T05:29:57.161Z,1002.57
2023-01-09T05:31:56.998Z,1002.57
2023-01-09T05:33:56.960Z,1002.61
2023-01-09T05:35:57.076Z,1002.65
2023-01-09T05:37:57.048Z,1002.65
2023-01-09T05:39:57.016Z,1002.72
2023-01-09T05:41:57.059Z,1002.72
2023-01-09T05:43:57.052Z,1002.74
2023-01-09T05:45:56.990Z,1002.83
2023-01-09T05:47:56.982Z,1002.96
2023-01-09T05:49:56.954Z,1002.96
2023-01-09T05:51:57.023Z,1003.01
2023-01-09T05:53:57.137Z,1003.06
2023-01-09T05:55:57.040Z,1003.10
2023-01-09T05:57:57.088Z,1003.11
2023-01-09T05:59:57.183Z,1003.11
2023-01-09T06:01:58.304Z,1003.17
2023-01-09T06:03:57.031Z,1003.22
2023-01-09T06:05:56.979Z,1003.25
2023-01-09T06:07:57.055Z,1003.26
2023-01-09T06:09:56.980Z,1003.26
2023-01-09T06:11:56.994Z,1003.25
2023-01-09T06:13:56.993Z,1003.28
2023-01-09T06:15:57.073Z,1003.27
2023-01-09T06:17:57.011Z,1003.27
2023-01-09T06:19:57.003Z,1003.27
2023-01-09T06:21:57.047Z,1003.33
2023-01-09T06:23:57.169Z,1003.33
2023-01-09T06:25:57.008Z,1003.34
2023-01-09T06:27:56.995Z,1003.34
2023-01-09T06:29:56.992Z,1003.29
2023-01-09T06:31:56.982Z,1003.31
2023-01-09T06:33:56.991Z,1003.38
2023-01-09T06:35:57.017Z,1003.39
2023-01-09T06:37:57.087Z,1003.39
2023-01-09T06:39:56.996Z,1003.41
2023-01-09T06:41:56.979Z,1003.41
2023-01-09T06:44:27.088Z,1003.53
2023-01-09T06:46:27.271Z,1003.50
2023-01-09T06:48:27.058Z,1003.52
2023-01-09T06:50:26.997Z,1003.52
2023-01-09T06:52:26.988Z,1003.46
2023-01-09T06:54:28.726Z,1003.55
2023-01-09T06:56:27.065Z,1003.46
2023-01-09T06:58:27.070Z,1003.46
2023-01-09T07:00:27.107Z,1003.46
2023-01-09T07:02:27.012Z,1003.46
2023-01-09T07:04:27.043Z,1003.46
2023-01-09T07:06:27.031Z,1003.53
2023-01-09T07:08:27.028Z,1003.59
2023-01-09T07:10:27.019Z,1003.59
2023-01-09T07:12:27.030Z,1003.59
2023-01-09T07:14:27.113Z,1003.53
2023-01-09T07:16:27.065Z,1003.60
2023-01-09T07:18:27.019Z,1003.60
2023-01-09T07:20:27.025Z,1003.60
2023-01-09T07:22:27.033Z,1003.65
2023-01-09T07:24:27.034Z,1003.65
2023-01-09T07:26:27.104Z,1003.65
2023-01-09T07:28:27.051Z,1003.65
2023-01-09T07:30:27.003Z,1003.65
2023-01-09T07:32:27.004Z,1003.65
2023-01-09T07:34:27.043Z,1003.65
2023-01-09T07:36:27.014Z,1003.86
2023-01-09T07:38:27.116Z,1003.86
2023-01-09T07:40:27.042Z,1003.86
2023-01-09T07:42:27.076Z,1003.86
2023-01-09T07:44:27.133Z,1004.07
2023-01-09T07:46:27.179Z,1004.07
2023-01-09T07:48:27.044Z,1004.07
2023-01-09T07:50:27.169Z,1004.07
2023-01-09T07:52:27.079Z,1004.07
2023-01-09T07:54:27.045Z,1004.31
2023-01-09T07:56:27.052Z,1004.31
2023-01-09T07:58:27.044Z,1004.39
2023-01-09T08:00:27.060Z,1004.47
2023-01-09T08:02:27.039Z,1004.31
2023-01-09T08:04:27.087Z,1004.42
2023-01-09T08:06:27.295Z,1004.42
2023-01-09T08:08:27.048Z,1004.36
2023-01-09T08:10:27.057Z,1004.41
2023-01-09T08:12:27.076Z,1004.49
2023-01-09T08:14:27.089Z,1004.49
2023-01-09T08:16:27.242Z,1004.46
2023-01-09T08:18:27.056Z,1004.52
2023-01-09T08:20:27.077Z,1004.52
2023-01-09T08:22:27.098Z,1004.54
2023-01-09T08:24:27.053Z,1004.54
2023-01-09T08:26:27.160Z,1004.64
2023-01-09T08:28:57.063Z,1004.63
2023-01-09T08:30:57.028Z,1004.53
2023-01-09T08:32:57.068Z,1004.58
2023-01-09T08:34:57.103Z,1004.58
2023-01-09T08:36:57.045Z,1004.63
2023-01-09T08:38:57.101Z,1004.53
2023-01-09T08:40:57.079Z,1004.54
2023-01-09T08:42:57.048Z,1004.54
2023-01-09T08:44:57.065Z,1004.54
2023-01-09T08:46:57.076Z,1004.48
2023-01-09T08:48:57.027Z,1004.40
2023-01-09T08:50:57.049Z,1004.40
2023-01-09T08:52:57.027Z,1004.40
2023-01-09T08:54:57.146Z,1004.32
2023-01-09T08:56:57.049Z,1004.33
2023-01-09T08:58:57.160Z,1004.28
2023-01-09T09:00:57.070Z,1004.28
2023-01-09T09:02:57.281Z,1004.28
2023-01-09T09:04:57.051Z,1004.28
2023-01-09T09:06:57.225Z,1004.26
2023-01-09T09:08:57.041Z,1004.30
2023-01-09T09:10:57.059Z,1004.28
2023-01-09T09:12:57.153Z,1004.28
2023-01-09T09:14:57.218Z,1004.33
2023-01-09T09:16:57.156Z,1004.35
2023-01-09T09:18:57.075Z,1004.31
2023-01-09T09:20:57.049Z,1004.31
2023-01-09T09:22:57.210Z,1004.27
2023-01-09T09:24:57.139Z,1004.29
2023-01-09T09:26:57.211Z,1004.20
2023-01-09T09:28:57.121Z,1004.22
2023-01-09T09:30:57.147Z,1004.22
2023-01-09T09:32:57.163Z,1004.20
2023-01-09T09:34:57.107Z,1004.33
2023-01-09T09:36:57.247Z,1004.36
2023-01-09T09:38:57.193Z,1004.31
2023-01-09T09:40:57.137Z,1004.31
2023-01-09T09:42:57.160Z,1004.31
2023-01-09T09:44:57.116Z,1004.41
2023-01-09T09:48:57.107Z,1004.41
2023-01-09T09:50:57.303Z,1004.41
2023-01-09T09:54:57.202Z,1004.52
2023-01-09T09:59:20.275Z,1004.49
2023-01-09T10:01:20.142Z,1004.47
2023-01-09T10:03:26.231Z,1004.47
2023-01-09T10:05:20.158Z,1004.47
2023-01-09T10:07:20.160Z,1004.47
2023-01-09T10:09:20.154Z,1004.41
2023-01-09T10:11:20.165Z,1004.42
2023-01-09T10:13:20.280Z,1004.42
2023-01-09T10:15:20.151Z,1004.42
2023-01-09T10:17:20.196Z,1004.39
2023-01-09T10:19:20.129Z,1004.50
2023-01-09T10:21:20.150Z,1004.50
2023-01-09T10:23:20.136Z,1004.50
2023-01-09T10:25:20.145Z,1004.45
2023-01-09T10:27:20.171Z,1004.45
2023-01-09T10:29:20.124Z,1004.40
2023-01-09T10:31:20.212Z,1004.40
2023-01-09T10:33:20.155Z,1004.52
2023-01-09T10:35:20.202Z,1004.64
2023-01-09T10:37:20.309Z,1004.59
2023-01-09T10:39:20.172Z,1004.65
2023-01-09T10:41:20.163Z,1004.65
2023-01-09T10:43:20.227Z,1004.62
2023-01-09T10:45:20.157Z,1004.69
2023-01-09T10:47:20.163Z,1004.60
2023-01-09T10:49:20.166Z,1004.60
2023-01-09T10:51:20.179Z,1004.60
2023-01-09T10:53:20.217Z,1004.60
2023-01-09T10:55:20.195Z,1004.45
2023-01-09T10:57:20.164Z,1004.44
2023-01-09T10:59:20.153Z,1004.44
2023-01-09T11:01:20.284Z,1004.34
2023-01-09T11:03:20.234Z,1004.34
2023-01-09T11:05:20.182Z,1004.40
2023-01-09T11:07:20.173Z,1004.41
2023-01-09T11:09:20.179Z,1004.41
2023-01-09T11:11:20.198Z,1004.41
2023-01-09T11:13:20.217Z,1004.47
2023-01-09T11:15:20.223Z,1004.35
2023-01-09T11:17:20.227Z,1004.35
2023-01-09T11:19:20.191Z,1004.36
2023-01-09T11:21:20.199Z,1004.36
2023-01-09T11:23:20.165Z,1004.34
2023-01-09T11:25:20.189Z,1004.33
2023-01-09T11:27:20.207Z,1004.33
2023-01-09T11:29:20.179Z,1004.37
2023-01-09T11:31:20.197Z,1004.37
2023-01-09T11:33:20.229Z,1004.34
2023-01-09T11:35:50.227Z,1004.36
2023-01-09T11:37:50.189Z,1004.36
2023-01-09T11:39:50.176Z,1004.39
2023-01-09T11:41:50.219Z,1004.35
2023-01-09T11:43:50.297Z,1004.35
2023-01-09T11:46:00.184Z,1004.37
2023-01-09T11:47:50.244Z,1004.37
2023-01-09T11:49:51.366Z,1004.38
2023-01-09T11:51:50.188Z,1004.39
2023-01-09T11:53:50.210Z,1004.41
2023-01-09T11:55:50.211Z,1004.41
2023-01-09T11:57:50.196Z,1004.39
2023-01-09T11:59:50.198Z,1004.41
2023-01-09T12:01:50.236Z,1004.49
2023-01-09T12:03:50.206Z,1004.54
2023-01-09T12:05:50.242Z,1004.54
2023-01-09T12:07:50.216Z,1004.56
2023-01-09T12:09:50.210Z,1004.52
2023-01-09T12:11:50.310Z,1004.49
2023-01-09T12:13:50.215Z,1004.52
2023-01-09T12:15:50.416Z,1004.52
2023-01-09T12:17:50.262Z,1004.60
2023-01-09T12:19:50.230Z,1004.62
2023-01-09T12:21:50.221Z,1004.62
2023-01-09T12:23:50.222Z,1004.62
2023-01-09T12:25:50.210Z,1004.62
2023-01-09T12:27:50.235Z,1004.62
2023-01-09T12:29:50.354Z,1004.57
2023-01-09T12:31:50.245Z,1004.54
2023-01-09T12:33:50.260Z,1004.54
2023-01-09T12:35:50.227Z,1004.45
2023-01-09T12:37:50.210Z,1004.41
2023-01-09T12:39:50.212Z,1004.41
2023-01-09T12:41:50.268Z,1004.40
2023-01-09T12:43:50.246Z,1004.40
2023-01-09T12:45:50.242Z,1004.39
2023-01-09T12:47:50.255Z,1004.39
2023-01-09T12:49:50.220Z,1004.47
2023-01-09T12:51:50.352Z,1004.47
2023-01-09T12:53:50.255Z,1004.47
2023-01-09T12:55:50.313Z,1004.41
2023-01-09T12:57:50.243Z,1004.48
2023-01-09T12:59:50.273Z,1004.46
2023-01-09T13:01:50.426Z,1004.46
2023-01-09T13:03:50.468Z,1004.48
2023-01-09T13:05:50.373Z,1004.48
2023-01-09T13:07:50.496Z,1004.52
2023-01-09T13:09:50.289Z,1004.44
2023-01-09T13:11:50.316Z,1004.44
2023-01-09T13:13:50.328Z,1004.41
2023-01-09T13:15:50.359Z,1004.41
2023-01-09T13:17:50.264Z,1004.38
2023-01-09T13:19:50.291Z,1004.38
2023-01-09T13:21:50.295Z,1004.36
2023-01-09T13:23:50.321Z,1004.33
2023-01-09T13:26:20.420Z,1004.36
2023-01-09T13:28:20.393Z,1004.34
2023-01-09T13:30:20.260Z,1004.35
2023-01-09T13:32:20.307Z,1004.43
2023-01-09T13:34:22.434Z,1004.43
2023-01-09T13:36:20.274Z,1004.47
2023-01-09T13:38:20.319Z,1004.53
2023-01-09T13:40:20.433Z,1004.56
2023-01-09T13:42:20.263Z,1004.54
2023-01-09T13:44:20.290Z,1004.54
2023-01-09T13:46:20.271Z,1004.54
2023-01-09T13:48:20.273Z,1004.54
2023-01-09T13:50:20.433Z,1004.50
2023-01-09T13:52:20.268Z,1004.50
2023-01-09T13:54:20.352Z,1004.47
2023-01-09T13:56:22.770Z,1004.47
2023-01-09T13:58:20.266Z,1004.53
2023-01-09T14:00:20.277Z,1004.50
2023-01-09T14:02:20.464Z,1004.50
2023-01-09T14:04:20.297Z,1004.54
2023-01-09T14:06:20.313Z,1004.51
2023-01-09T14:08:21.379Z,1004.64
2023-01-09T14:10:20.325Z,1004.64
2023-01-09T14:12:20.393Z,1004.64
2023-01-09T14:14:20.282Z,1004.64
2023-01-09T14:16:20.342Z,1004.77
2023-01-09T14:18:20.280Z,1004.77
2023-01-09T14:20:20.411Z,1004.77
2023-01-09T14:24:20.302Z,1004.85
2023-01-09T14:26:20.331Z,1004.85
2023-01-09T14:28:20.394Z,1005.07
2023-01-09T14:30:20.479Z,1005.07
2023-01-09T14:32:20.498Z,1005.35
2023-01-09T14:34:30.184Z,1005.43
2023-01-09T14:36:20.302Z,1005.50
2023-01-09T14:38:20.313Z,1005.64
2023-01-09T14:40:20.377Z,1005.64
2023-01-09T14:42:20.316Z,1005.66
2023-01-09T14:44:20.321Z,1005.69
2023-01-09T14:46:20.427Z,1005.59
2023-01-09T14:48:20.428Z,1005.64
2023-01-09T14:50:20.332Z,1005.64
2023-01-09T14:52:20.321Z,1005.65
2023-01-09T14:54:20.318Z,1005.65
2023-01-09T14:56:20.316Z,1005.65
2023-01-09T14:58:20.283Z,1005.65
2023-01-09T15:00:20.500Z,1005.64
2023-01-09T15:02:22.755Z,1005.64
2023-01-09T15:04:20.315Z,1005.62
2023-01-09T15:06:20.348Z,1005.62
2023-01-09T15:08:20.282Z,1005.62
2023-01-09T15:10:20.334Z,1005.63
2023-01-09T15:12:50.378Z,1005.68
2023-01-09T15:14:50.308Z,1005.71
2023-01-09T15:16:50.617Z,1005.78
2023-01-09T15:18:50.312Z,1005.78
2023-01-09T15:20:50.328Z,1005.82
2023-01-09T15:22:52.757Z,1005.82
2023-01-09T15:24:50.372Z,1005.82
2023-01-09T15:26:50.484Z,1005.82
2023-01-09T15:28:50.335Z,1005.82
2023-01-09T15:30:50.413Z,1005.82
2023-01-09T15:32:50.544Z,1005.82
2023-01-09T15:34:50.363Z,1006.50
2023-01-09T15:36:50.395Z,1006.50
2023-01-09T15:38:50.384Z,1006.50
2023-01-09T15:40:50.388Z,1006.50
2023-01-09T15:42:50.325Z,1006.54
2023-01-09T15:44:50.342Z,1006.54
2023-01-09T15:46:50.419Z,1006.54
2023-01-09T15:48:50.331Z,1006.54
2023-01-09T15:50:50.408Z,1006.63
2023-01-09T15:52:50.398Z,1006.72
2023-01-09T15:54:50.423Z,1006.72
2023-01-09T15:56:50.342Z,1006.67
2023-01-09T15:58:50.361Z,1006.58
2023-01-09T16:00:50.491Z,1006.52
2023-01-09T16:02:50.537Z,1006.51
2023-01-09T16:04:50.608Z,1006.51
2023-01-09T16:06:50.387Z,1006.45
2023-01-09T16:08:50.437Z,1006.49
2023-01-09T16:10:50.421Z,1006.44
2023-01-09T16:12:50.419Z,1006.47
2023-01-09T16:14:50.476Z,1006.47
2023-01-09T16:16:50.609Z,1006.44
2023-01-09T16:18:50.509Z,1006.44
2023-01-09T16:20:50.392Z,1006.44
2023-01-09T16:22:50.458Z,1006.44
2023-01-09T16:24:50.454Z,1006.52
2023-01-09T16:26:50.561Z,1006.52
2023-01-09T16:28:50.536Z,1006.52
2023-01-09T16:30:50.899Z,1006.86
2023-01-09T16:32:50.478Z,1006.86
2023-01-09T16:34:50.583Z,1006.92
2023-01-09T16:38:50.504Z,1006.98
2023-01-09T16:40:50.497Z,1007.04
2023-01-09T16:42:50.550Z,1007.04
2023-01-09T16:44:50.463Z,1007.00
2023-01-09T16:48:50.500Z,1007.04
2023-01-09T16:50:50.573Z,1007.11
2023-01-09T16:55:01.666Z,1007.13
2023-01-09T16:57:01.589Z,1007.23
2023-01-09T16:59:01.586Z,1007.33
2023-01-09T17:01:01.706Z,1007.33
2023-01-09T17:03:01.545Z,1007.39
2023-01-09T17:05:01.549Z,1007.45
2023-01-09T17:07:01.544Z,1007.49
2023-01-09T17:09:01.692Z,1007.49
2023-01-09T17:11:01.576Z,1007.49
2023-01-09T17:13:01.610Z,1007.49
2023-01-09T17:15:03.413Z,1007.70
2023-01-09T17:17:05.356Z,1007.72
2023-01-09T17:19:01.544Z,1007.70
2023-01-09T17:21:01.609Z,1007.70
2023-01-09T17:23:01.579Z,1007.72
2023-01-09T17:25:01.583Z,1007.69
2023-01-09T17:27:01.598Z,1007.67
2023-01-09T17:29:01.635Z,1007.67
2023-01-09T17:31:01.720Z,1007.63
2023-01-09T17:33:01.609Z,1007.61
2023-01-09T17:35:31.732Z,1007.60
2023-01-09T17:37:31.583Z,1007.60
2023-01-09T17:39:31.625Z,1007.61
2023-01-09T17:41:31.591Z,1007.61
2023-01-09T17:43:31.625Z,1007.61
2023-01-09T17:45:31.703Z,1007.65
2023-01-09T17:47:31.667Z,1007.64
2023-01-09T17:49:31.576Z,1007.64
2023-01-09T17:51:31.545Z,1007.66
2023-01-09T17:53:31.570Z,1007.66
2023-01-09T17:55:31.629Z,1007.72
2023-01-09T17:57:31.667Z,1007.72
2023-01-09T17:59:31.574Z,1007.84
2023-01-09T18:01:31.767Z,1007.84
2023-01-09T18:03:31.705Z,1007.84
2023-01-09T18:05:31.570Z,1007.85
2023-01-09T18:07:31.595Z,1007.89
2023-01-09T18:09:31.639Z,1007.96
2023-01-09T18:11:31.657Z,1007.96
2023-01-09T18:13:31.642Z,1007.96
2023-01-09T18:15:31.608Z,1008.01
2023-01-09T18:17:31.667Z,1007.96
2023-01-09T18:19:31.595Z,1007.94
2023-01-09T18:21:31.771Z,1007.94
2023-01-09T18:23:31.608Z,1007.98
2023-01-09T18:25:31.677Z,1007.99
2023-01-09T18:27:31.691Z,1007.99
2023-01-09T18:29:31.672Z,1007.99
2023-01-09T18:31:31.640Z,1007.99
2023-01-09T18:33:31.553Z,1008.11
2023-01-09T18:35:31.637Z,1008.18
2023-01-09T18:37:31.620Z,1008.23
2023-01-09T18:39:31.731Z,1008.23
2023-01-09T18:41:31.801Z,1008.34
2023-01-09T18:43:31.674Z,1008.34
2023-01-09T18:45:32.672Z,1008.39
2023-01-09T18:47:31.577Z,1008.39
2023-01-09T18:49:31.551Z,1008.39
2023-01-09T18:51:31.638Z,1008.39
2023-01-09T18:53:31.582Z,1008.54
2023-01-09T18:55:31.590Z,1008.54
2023-01-09T18:57:31.586Z,1008.54
2023-01-09T18:59:31.544Z,1008.54
2023-01-09T19:01:31.732Z,1008.53
2023-01-09T19:03:31.661Z,1008.59
2023-01-09T19:05:31.639Z,1008.65
2023-01-09T19:07:31.613Z,1008.65
2023-01-09T19:09:31.643Z,1008.78
2023-01-09T19:11:31.555Z,1008.78
2023-01-09T19:13:31.664Z,1008.88
2023-01-09T19:15:31.701Z,1008.86
2023-01-09T19:17:31.592Z,1008.86
2023-01-09T19:20:01.606Z,1008.93
2023-01-09T19:22:01.620Z,1009.02
2023-01-09T19:24:01.658Z,1009.06
2023-01-09T19:26:01.767Z,1009.06
2023-01-09T19:28:01.681Z,1009.10
2023-01-09T19:30:01.722Z,1009.18
2023-01-09T19:32:01.727Z,1009.31
2023-01-09T19:34:01.687Z,1009.29
2023-01-09T19:36:01.657Z,1009.29
2023-01-09T19:38:01.706Z,1009.44
2023-01-09T19:40:01.674Z,1009.45
2023-01-09T19:42:01.670Z,1009.47
2023-01-09T19:44:01.712Z,1009.48
2023-01-09T19:46:01.883Z,1009.48
2023-01-09T19:48:01.624Z,1009.48
2023-01-09T19:50:03.353Z,1009.62
2023-01-09T19:52:01.636Z,1009.62
2023-01-09T19:56:01.717Z,1009.73
2023-01-09T19:58:01.741Z,1009.73
2023-01-09T20:00:01.620Z,1009.73
2023-01-09T20:02:01.746Z,1009.85
2023-01-09T20:04:01.685Z,1009.85
2023-01-09T20:06:02.638Z,1010.00
2023-01-09T20:08:01.665Z,1010.05
2023-01-09T20:10:01.690Z,1010.04
2023-01-09T20:12:01.728Z,1010.04
2023-01-09T20:14:01.745Z,1010.04
2023-01-09T20:16:01.757Z,1010.16
2023-01-09T20:18:01.623Z,1010.20
2023-01-09T20:20:01.680Z,1010.27
2023-01-09T20:22:01.587Z,1010.27
2023-01-09T20:24:01.676Z,1010.27
2023-01-09T20:26:01.652Z,1010.45
2023-01-09T20:28:01.809Z,1010.45
2023-01-09T20:30:01.624Z,1010.45
2023-01-09T20:32:01.838Z,1010.45
2023-01-09T20:34:01.657Z,1010.45
2023-01-09T20:36:01.654Z,1010.45
2023-01-09T20:38:01.703Z,1010.45
2023-01-09T20:40:01.712Z,1010.74
2023-01-09T20:42:01.785Z,1010.74
2023-01-09T20:44:01.776Z,1010.74
2023-01-09T20:46:01.724Z,1010.74
2023-01-09T20:48:01.852Z,1010.76
2023-01-09T20:50:01.746Z,1010.76
2023-01-09T20:52:01.724Z,1010.76
2023-01-09T20:54:01.640Z,1010.72
2023-01-09T20:56:02.001Z,1010.72
2023-01-09T20:58:01.778Z,1010.72
2023-01-09T21:00:01.732Z,1010.72
2023-01-09T21:02:31.673Z,1010.85
2023-01-09T21:04:31.673Z,1010.85
2023-01-09T21:06:31.679Z,1011.00
2023-01-09T21:08:31.712Z,1011.00
2023-01-09T21:10:31.752Z,1011.00
2023-01-09T21:12:31.723Z,1011.00
2023-01-09T21:14:31.780Z,1011.00
2023-01-09T21:16:31.754Z,1011.00
2023-01-09T21:18:31.721Z,1011.00
2023-01-09T21:20:31.690Z,1011.00
2023-01-09T21:22:31.712Z,1011.11
2023-01-09T21:24:31.684Z,1011.11
2023-01-09T21:26:31.782Z,1011.11
2023-01-09T21:28:31.768Z,1011.11
2023-01-09T21:30:31.748Z,1011.21
2023-01-09T21:32:31.704Z,1011.21
2023-01-09T21:34:31.692Z,1011.33
2023-01-09T21:36:31.844Z,1011.36
2023-01-09T21:38:31.724Z,1011.36
2023-01-09T21:40:31.738Z,1011.36
2023-01-09T21:42:31.747Z,1011.36
2023-01-09T21:44:31.746Z,1011.43
2023-01-09T21:46:31.697Z,1011.43
2023-01-09T21:48:31.663Z,1011.43
2023-01-09T21:50:31.667Z,1011.43
2023-01-09T21:52:31.714Z,1011.43
2023-01-09T21:54:31.707Z,1011.43
2023-01-09T21:56:31.751Z,1011.69
2023-01-09T21:58:31.664Z,1011.69
2023-01-09T22:00:31.818Z,1011.69
2023-01-09T22:02:31.735Z,1011.69
2023-01-09T22:04:31.701Z,1011.69
2023-01-09T22:06:31.768Z,1011.81
2023-01-09T22:08:31.743Z,1011.81
2023-01-09T22:10:31.775Z,1011.81
2023-01-09T22:12:31.789Z,1011.81
2023-01-09T22:14:31.790Z,1011.81
2023-01-09T22:16:31.853Z,1011.81
2023-01-09T22:18:31.739Z,1011.81
2023-01-09T22:20:31.776Z,1011.81
2023-01-09T22:22:31.717Z,1011.81
2023-01-09T22:24:31.729Z,1011.81
2023-01-09T22:26:31.768Z,1011.81
2023-01-09T22:28:31.683Z,1011.81
2023-01-09T22:30:31.832Z,1011.81
2023-01-09T22:32:31.716Z,1012.15
2023-01-09T22:34:31.726Z,1012.15
2023-01-09T22:36:31.825Z,1012.15
2023-01-09T22:38:31.767Z,1012.15
2023-01-09T22:40:31.785Z,1012.15
2023-01-09T22:42:31.786Z,1012.31
2023-01-09T22:44:31.850Z,1012.46
2023-01-09T22:46:31.720Z,1012.46
2023-01-09T22:49:01.744Z,1012.46
2023-01-09T22:51:01.708Z,1012.46
2023-01-09T22:53:01.661Z,1012.46
2023-01-09T22:55:01.765Z,1012.50
2023-01-09T22:57:01.856Z,1012.50
2023-01-09T22:59:01.774Z,1012.50
2023-01-09T23:01:02.149Z,1012.50
2023-01-09T23:03:01.760Z,1012.50
2023-01-09T23:05:01.743Z,1012.50
2023-01-09T23:07:01.746Z,1012.50
2023-01-09T23:09:01.789Z,1012.50
2023-01-09T23:11:01.769Z,1012.50
2023-01-09T23:13:01.794Z,1012.69
2023-01-09T23:15:01.706Z,1012.69
2023-01-09T23:17:01.710Z,1012.69
2023-01-09T23:19:01.714Z,1012.69
2023-01-09T23:21:01.706Z,1012.61
2023-01-09T23:23:01.701Z,1012.61
2023-01-09T23:25:01.690Z,1012.61
2023-01-09T23:27:01.718Z,1012.61
2023-01-09T23:29:01.751Z,1012.63
2023-01-09T23:31:01.705Z,1012.63
2023-01-09T23:33:01.719Z,1012.63
2023-01-09T23:35:01.725Z,1012.63
2023-01-09T23:37:01.766Z,1012.79
2023-01-09T23:39:01.717Z,1012.79
2023-01-09T23:41:01.792Z,1012.80
2023-01-09T23:43:01.911Z,1012.80
2023-01-09T23:47:10.442Z,1012.80
2023-01-09T23:49:10.578Z,1012.97
2023-01-09T23:51:10.506Z,1012.97
2023-01-09T23:53:10.497Z,1012.99
2023-01-09T23:55:10.457Z,1012.99
2023-01-09T23:57:10.379Z,1012.99
2023-01-09T23:59:10.429Z,1012.99
